GAC926W EDDH-EHBK
Flight info
| Callsign | GAC926W |
|---|---|
| Flight time | 0h 54m |
| Altitude | 26000 |
| Route | WSN5C WSN DCT DH260 DCT DH165 DCT WSN DCT MALYK DCT DIBIR DCT ROMIN DCT OSGOS |
| Aircraft | C510/L-SDFGRWY/LB1 |
Departure
| Time | 2026-05-08 21:19 |
|---|---|
| Airport | Hamburg Helmut Schmidt Airport (EDDH) |
Arrival
| Time | 2026-05-08 22:14 |
|---|---|
| Airport | Maastricht Aachen Airport (EHBK) |
| Time | Latitude | Longitude | Altitude | Speed | Heading |
|---|---|---|---|---|---|
| 2026-05-08 21:19 | 53.69293 | 10.09555 | 5437 ft | 183 kts | 14° |
| 2026-05-08 21:19 | 53.70576 | 10.09509 | 6194 ft | 186 kts | 348° |
| 2026-05-08 21:19 | 53.71756 | 10.08606 | 6921 ft | 189 kts | 326° |
| 2026-05-08 21:20 | 53.72645 | 10.06946 | 7557 ft | 193 kts | 300° |
| 2026-05-08 21:20 | 53.73224 | 10.04944 | 8218 ft | 193 kts | 297° |
| 2026-05-08 21:20 | 53.73864 | 10.02938 | 8843 ft | 195 kts | 298° |
| 2026-05-08 21:20 | 53.74482 | 10.00868 | 9471 ft | 197 kts | 296° |
| 2026-05-08 21:21 | 53.74989 | 9.98708 | 10088 ft | 199 kts | 280° |
| 2026-05-08 21:21 | 53.74947 | 9.96370 | 10623 ft | 200 kts | 259° |
| 2026-05-08 21:21 | 53.74465 | 9.94191 | 11165 ft | 201 kts | 245° |
| 2026-05-08 21:21 | 53.73916 | 9.92014 | 11751 ft | 201 kts | 249° |
| 2026-05-08 21:22 | 53.73389 | 9.89846 | 12311 ft | 202 kts | 247° |
| 2026-05-08 21:22 | 53.72822 | 9.87652 | 12893 ft | 203 kts | 248° |
| 2026-05-08 21:22 | 53.72271 | 9.85479 | 13493 ft | 203 kts | 249° |
| 2026-05-08 21:22 | 53.71713 | 9.83276 | 14049 ft | 205 kts | 248° |
| 2026-05-08 21:23 | 53.71148 | 9.81047 | 14540 ft | 206 kts | 249° |
| 2026-05-08 21:23 | 53.70588 | 9.78840 | 15050 ft | 206 kts | 249° |
| 2026-05-08 21:23 | 53.70019 | 9.76602 | 15525 ft | 208 kts | 249° |
| 2026-05-08 21:23 | 53.69452 | 9.74364 | 16014 ft | 210 kts | 249° |
| 2026-05-08 21:24 | 53.68878 | 9.72116 | 16516 ft | 211 kts | 249° |
| 2026-05-08 21:24 | 53.68295 | 9.69821 | 17047 ft | 212 kts | 249° |
| 2026-05-08 21:24 | 53.67714 | 9.67552 | 17570 ft | 213 kts | 249° |
| 2026-05-08 21:24 | 53.67124 | 9.65235 | 18085 ft | 214 kts | 249° |
| 2026-05-08 21:25 | 53.66529 | 9.62905 | 18611 ft | 216 kts | 249° |
| 2026-05-08 21:25 | 53.65935 | 9.60590 | 19058 ft | 217 kts | 249° |
| 2026-05-08 21:25 | 53.65335 | 9.58267 | 19504 ft | 218 kts | 248° |
| 2026-05-08 21:25 | 53.64466 | 9.56119 | 19951 ft | 223 kts | 235° |
| 2026-05-08 21:26 | 53.63554 | 9.54034 | 20387 ft | 223 kts | 239° |
| 2026-05-08 21:26 | 53.62664 | 9.51863 | 20840 ft | 225 kts | 238° |
| 2026-05-08 21:26 | 53.61741 | 9.49723 | 21289 ft | 226 kts | 237° |
| 2026-05-08 21:26 | 53.60825 | 9.47595 | 21740 ft | 228 kts | 237° |
| 2026-05-08 21:27 | 53.59888 | 9.45414 | 22199 ft | 229 kts | 237° |
| 2026-05-08 21:27 | 53.58957 | 9.43245 | 22648 ft | 231 kts | 237° |
| 2026-05-08 21:27 | 53.58013 | 9.41047 | 23098 ft | 232 kts | 237° |
| 2026-05-08 21:27 | 53.57057 | 9.38831 | 23540 ft | 234 kts | 237° |
| 2026-05-08 21:28 | 53.56106 | 9.36623 | 23937 ft | 235 kts | 238° |
| 2026-05-08 21:28 | 53.55139 | 9.34379 | 24296 ft | 237 kts | 237° |
| 2026-05-08 21:28 | 53.54161 | 9.32114 | 24646 ft | 239 kts | 237° |
| 2026-05-08 21:28 | 53.53191 | 9.29871 | 24992 ft | 240 kts | 237° |
| 2026-05-08 21:29 | 53.52203 | 9.27582 | 25337 ft | 242 kts | 237° |
| 2026-05-08 21:29 | 53.51206 | 9.25279 | 25680 ft | 243 kts | 237° |
| 2026-05-08 21:29 | 53.50216 | 9.22992 | 26014 ft | 245 kts | 237° |
| 2026-05-08 21:29 | 53.49205 | 9.20662 | 26349 ft | 246 kts | 237° |
| 2026-05-08 21:30 | 53.48194 | 9.18330 | 26672 ft | 248 kts | 237° |
| 2026-05-08 21:30 | 53.47186 | 9.16010 | 26987 ft | 249 kts | 237° |
| 2026-05-08 21:30 | 53.46160 | 9.13651 | 27299 ft | 250 kts | 238° |
| 2026-05-08 21:30 | 53.45128 | 9.11277 | 27602 ft | 252 kts | 237° |
| 2026-05-08 21:31 | 53.44087 | 9.08890 | 27897 ft | 253 kts | 238° |
| 2026-05-08 21:31 | 53.43060 | 9.06528 | 28183 ft | 254 kts | 237° |
| 2026-05-08 21:31 | 53.42027 | 9.04166 | 28467 ft | 256 kts | 238° |
| 2026-05-08 21:31 | 53.40952 | 9.01701 | 28760 ft | 257 kts | 237° |
| 2026-05-08 21:32 | 53.39890 | 8.99276 | 29031 ft | 259 kts | 237° |
| 2026-05-08 21:32 | 53.38830 | 8.96848 | 29310 ft | 260 kts | 237° |
| 2026-05-08 21:32 | 53.37763 | 8.94418 | 29592 ft | 261 kts | 237° |
| 2026-05-08 21:32 | 53.36685 | 8.91953 | 29880 ft | 262 kts | 237° |
| 2026-05-08 21:33 | 53.35597 | 8.89479 | 30171 ft | 264 kts | 237° |
| 2026-05-08 21:33 | 53.34531 | 8.86916 | 30194 ft | 271 kts | 244° |
| 2026-05-08 21:33 | 53.33705 | 8.84075 | 30196 ft | 279 kts | 247° |
| 2026-05-08 21:33 | 53.32802 | 8.81143 | 30200 ft | 287 kts | 245° |
| 2026-05-08 21:34 | 53.31853 | 8.78129 | 30206 ft | 293 kts | 246° |
| 2026-05-08 21:34 | 53.30926 | 8.75087 | 30210 ft | 298 kts | 246° |
| 2026-05-08 21:34 | 53.29976 | 8.71970 | 30208 ft | 303 kts | 246° |
| 2026-05-08 21:35 | 53.28020 | 8.65615 | 30211 ft | 309 kts | 246° |
| 2026-05-08 21:35 | 53.26043 | 8.59202 | 30210 ft | 315 kts | 246° |
| 2026-05-08 21:36 | 53.24017 | 8.52644 | 30207 ft | 319 kts | 246° |
| 2026-05-08 21:36 | 53.21972 | 8.46044 | 30205 ft | 323 kts | 246° |
| 2026-05-08 21:37 | 53.19889 | 8.39340 | 30197 ft | 326 kts | 246° |
| 2026-05-08 21:37 | 53.17798 | 8.32626 | 30198 ft | 328 kts | 246° |
| 2026-05-08 21:38 | 53.15685 | 8.25863 | 30196 ft | 330 kts | 246° |
| 2026-05-08 21:38 | 53.13560 | 8.19079 | 30197 ft | 332 kts | 246° |
| 2026-05-08 21:39 | 53.11411 | 8.12241 | 30187 ft | 334 kts | 246° |
| 2026-05-08 21:39 | 53.09260 | 8.05414 | 30189 ft | 335 kts | 246° |
| 2026-05-08 21:40 | 53.07445 | 7.99674 | 30191 ft | 337 kts | 246° |
| 2026-05-08 21:40 | 53.05268 | 7.92798 | 30193 ft | 338 kts | 246° |
| 2026-05-08 21:41 | 53.01963 | 7.82399 | 30194 ft | 340 kts | 246° |
| 2026-05-08 21:41 | 52.99709 | 7.75504 | 30180 ft | 342 kts | 240° |
| 2026-05-08 21:42 | 52.98188 | 7.72475 | 30179 ft | 346 kts | 228° |
| 2026-05-08 21:42 | 52.96294 | 7.69943 | 30174 ft | 351 kts | 216° |
| 2026-05-08 21:42 | 52.92080 | 7.65826 | 30174 ft | 351 kts | 213° |
| 2026-05-08 21:43 | 52.87856 | 7.61713 | 30176 ft | 352 kts | 213° |
| 2026-05-08 21:43 | 52.83648 | 7.57630 | 30173 ft | 352 kts | 213° |
| 2026-05-08 21:44 | 52.79430 | 7.53542 | 30177 ft | 353 kts | 213° |
| 2026-05-08 21:44 | 52.75169 | 7.49424 | 30174 ft | 354 kts | 213° |
| 2026-05-08 21:45 | 52.70912 | 7.45320 | 30175 ft | 355 kts | 213° |
| 2026-05-08 21:45 | 52.66644 | 7.41213 | 30172 ft | 356 kts | 213° |
| 2026-05-08 21:46 | 52.62350 | 7.37093 | 30173 ft | 357 kts | 213° |
| 2026-05-08 21:46 | 52.58076 | 7.33000 | 30173 ft | 357 kts | 213° |
| 2026-05-08 21:47 | 52.53765 | 7.28883 | 30168 ft | 357 kts | 213° |
| 2026-05-08 21:47 | 52.49469 | 7.24786 | 30174 ft | 358 kts | 212° |
| 2026-05-08 21:48 | 52.45151 | 7.20681 | 30174 ft | 358 kts | 212° |
| 2026-05-08 21:48 | 52.40847 | 7.16597 | 30175 ft | 358 kts | 212° |
| 2026-05-08 21:49 | 52.36556 | 7.12534 | 30172 ft | 359 kts | 212° |
| 2026-05-08 21:49 | 52.32210 | 7.08429 | 30173 ft | 359 kts | 212° |
| 2026-05-08 21:50 | 52.27907 | 7.04373 | 30170 ft | 358 kts | 212° |
| 2026-05-08 21:50 | 52.23568 | 7.00293 | 30168 ft | 358 kts | 212° |
| 2026-05-08 21:51 | 52.19255 | 6.96248 | 30167 ft | 358 kts | 212° |
| 2026-05-08 21:51 | 52.14941 | 6.92210 | 30165 ft | 358 kts | 212° |
| 2026-05-08 21:52 | 52.10639 | 6.88190 | 30162 ft | 357 kts | 212° |
| 2026-05-08 21:52 | 52.06321 | 6.84166 | 30160 ft | 358 kts | 212° |
| 2026-05-08 21:53 | 52.01992 | 6.80142 | 30159 ft | 359 kts | 212° |
| 2026-05-08 21:53 | 51.97640 | 6.76105 | 30154 ft | 360 kts | 212° |
| 2026-05-08 21:54 | 51.93302 | 6.72090 | 30154 ft | 360 kts | 212° |
| 2026-05-08 21:54 | 51.88934 | 6.68057 | 29821 ft | 366 kts | 212° |
| 2026-05-08 21:55 | 51.86707 | 6.66002 | 29542 ft | 368 kts | 212° |
| 2026-05-08 21:55 | 51.84472 | 6.63946 | 29255 ft | 369 kts | 212° |
| 2026-05-08 21:55 | 51.82256 | 6.61906 | 28973 ft | 369 kts | 212° |
| 2026-05-08 21:56 | 51.77816 | 6.57830 | 28429 ft | 367 kts | 211° |
| 2026-05-08 21:56 | 51.75586 | 6.55788 | 28150 ft | 365 kts | 211° |
| 2026-05-08 21:56 | 51.73379 | 6.53766 | 27882 ft | 363 kts | 211° |
| 2026-05-08 21:56 | 51.71179 | 6.51754 | 27615 ft | 361 kts | 211° |
| 2026-05-08 21:57 | 51.69023 | 6.49786 | 27355 ft | 359 kts | 211° |
| 2026-05-08 21:57 | 51.66866 | 6.47732 | 27091 ft | 355 kts | 216° |
| 2026-05-08 21:57 | 51.64886 | 6.45379 | 26829 ft | 352 kts | 219° |
| 2026-05-08 21:57 | 51.62914 | 6.43052 | 26573 ft | 351 kts | 218° |
| 2026-05-08 21:58 | 51.60943 | 6.40751 | 26316 ft | 349 kts | 218° |
| 2026-05-08 21:58 | 51.59007 | 6.38494 | 25868 ft | 345 kts | 218° |
| 2026-05-08 21:58 | 51.57070 | 6.36233 | 25372 ft | 341 kts | 218° |
| 2026-05-08 21:58 | 51.55152 | 6.34001 | 24886 ft | 337 kts | 217° |
| 2026-05-08 21:59 | 51.53257 | 6.31798 | 24402 ft | 333 kts | 217° |
| 2026-05-08 21:59 | 51.51407 | 6.29648 | 23944 ft | 330 kts | 217° |
| 2026-05-08 21:59 | 51.49547 | 6.27492 | 23427 ft | 327 kts | 217° |
| 2026-05-08 21:59 | 51.47706 | 6.25354 | 22874 ft | 325 kts | 217° |
| 2026-05-08 22:00 | 51.45877 | 6.23237 | 22327 ft | 323 kts | 217° |
| 2026-05-08 22:00 | 51.44074 | 6.21151 | 21799 ft | 321 kts | 217° |
| 2026-05-08 22:00 | 51.42262 | 6.19056 | 21276 ft | 319 kts | 216° |
| 2026-05-08 22:00 | 51.40478 | 6.16998 | 20766 ft | 317 kts | 216° |
| 2026-05-08 22:01 | 51.38692 | 6.14936 | 20262 ft | 315 kts | 217° |
| 2026-05-08 22:01 | 51.36939 | 6.12916 | 19772 ft | 313 kts | 216° |
| 2026-05-08 22:01 | 51.35176 | 6.10886 | 19284 ft | 310 kts | 216° |
| 2026-05-08 22:01 | 51.33422 | 6.08869 | 18810 ft | 309 kts | 216° |
| 2026-05-08 22:02 | 51.31678 | 6.06864 | 18305 ft | 307 kts | 216° |
| 2026-05-08 22:02 | 51.29966 | 6.04900 | 17769 ft | 305 kts | 216° |
| 2026-05-08 22:02 | 51.28237 | 6.02915 | 17225 ft | 303 kts | 216° |
| 2026-05-08 22:02 | 51.26523 | 6.00952 | 16712 ft | 302 kts | 216° |
| 2026-05-08 22:03 | 51.24840 | 5.99026 | 16200 ft | 300 kts | 216° |
| 2026-05-08 22:03 | 51.23139 | 5.97081 | 15691 ft | 299 kts | 216° |
| 2026-05-08 22:03 | 51.21451 | 5.95152 | 15193 ft | 296 kts | 216° |
| 2026-05-08 22:03 | 51.19785 | 5.93304 | 14705 ft | 291 kts | 211° |
| 2026-05-08 22:04 | 51.17932 | 5.92056 | 14213 ft | 288 kts | 197° |
| 2026-05-08 22:04 | 51.15956 | 5.91522 | 13704 ft | 286 kts | 184° |
| 2026-05-08 22:04 | 51.13994 | 5.91497 | 13178 ft | 284 kts | 181° |
| 2026-05-08 22:04 | 51.12025 | 5.91424 | 12655 ft | 282 kts | 182° |
| 2026-05-08 22:05 | 51.10064 | 5.91362 | 12132 ft | 281 kts | 181° |
| 2026-05-08 22:05 | 51.08126 | 5.91325 | 11606 ft | 280 kts | 181° |
| 2026-05-08 22:05 | 51.06174 | 5.91280 | 11084 ft | 280 kts | 182° |
| 2026-05-08 22:05 | 51.04236 | 5.91042 | 10565 ft | 277 kts | 191° |
| 2026-05-08 22:06 | 51.02362 | 5.90495 | 10068 ft | 277 kts | 191° |
| 2026-05-08 22:06 | 51.00457 | 5.90022 | 9510 ft | 277 kts | 189° |
| 2026-05-08 22:06 | 50.98537 | 5.89547 | 8956 ft | 281 kts | 190° |
| 2026-05-08 22:06 | 50.96606 | 5.89047 | 8438 ft | 281 kts | 190° |
| 2026-05-08 22:07 | 50.94674 | 5.88545 | 7925 ft | 279 kts | 190° |
| 2026-05-08 22:07 | 50.92777 | 5.88062 | 7430 ft | 278 kts | 190° |
| 2026-05-08 22:07 | 50.90868 | 5.87571 | 6933 ft | 276 kts | 190° |
| 2026-05-08 22:07 | 50.89003 | 5.87093 | 6439 ft | 264 kts | 190° |
| 2026-05-08 22:08 | 50.87280 | 5.86656 | 5924 ft | 238 kts | 190° |
| 2026-05-08 22:08 | 50.85708 | 5.86250 | 5455 ft | 220 kts | 189° |
| 2026-05-08 22:08 | 50.84248 | 5.85760 | 5005 ft | 215 kts | 199° |
| 2026-05-08 22:08 | 50.82959 | 5.84568 | 4611 ft | 216 kts | 215° |
| 2026-05-08 22:09 | 50.81716 | 5.83212 | 4227 ft | 217 kts | 212° |
| 2026-05-08 22:09 | 50.80472 | 5.81893 | 3839 ft | 217 kts | 218° |
| 2026-05-08 22:09 | 50.79538 | 5.80013 | 3455 ft | 220 kts | 240° |
| 2026-05-08 22:09 | 50.79020 | 5.77723 | 3077 ft | 222 kts | 259° |
| 2026-05-08 22:10 | 50.79025 | 5.75302 | 2791 ft | 219 kts | 279° |
| 2026-05-08 22:10 | 50.79520 | 5.73049 | 2503 ft | 216 kts | 299° |
| 2026-05-08 22:10 | 50.80361 | 5.71117 | 2230 ft | 214 kts | 308° |
| 2026-05-08 22:10 | 50.81412 | 5.69528 | 1931 ft | 205 kts | 334° |
| 2026-05-08 22:11 | 50.82756 | 5.69122 | 1787 ft | 196 kts | 6° |
| 2026-05-08 22:11 | 50.84020 | 5.69730 | 1788 ft | 186 kts | 33° |
| 2026-05-08 22:11 | 50.85026 | 5.70927 | 1787 ft | 173 kts | 44° |
| 2026-05-08 22:11 | 50.85915 | 5.72019 | 1765 ft | 153 kts | 24° |
| 2026-05-08 22:12 | 50.86814 | 5.72787 | 1519 ft | 135 kts | 21° |
| 2026-05-08 22:12 | 50.87566 | 5.73346 | 1311 ft | 107 kts | 31° |
| 2026-05-08 22:12 | 50.88171 | 5.73939 | 1049 ft | 99 kts | 34° |
| 2026-05-08 22:12 | 50.88728 | 5.74525 | 825 ft | 95 kts | 36° |
| 2026-05-08 22:13 | 50.89270 | 5.75075 | 641 ft | 90 kts | 34° |
| 2026-05-08 22:13 | 50.89792 | 5.75609 | 488 ft | 87 kts | 34° |
| 2026-05-08 22:13 | 50.90301 | 5.76126 | 390 ft | 86 kts | 34° |
| 2026-05-08 22:13 | 50.90759 | 5.76593 | 379 ft | 66 kts | 32° |
| 2026-05-08 22:14 | 50.91045 | 5.76879 | 376 ft | 34 kts | 33° |
| 2026-05-08 22:14 | 50.91130 | 5.76867 | 376 ft | 9 kts | 304° |
| 2026-05-08 22:14 | 50.91159 | 5.76798 | 377 ft | 7 kts | 303° |
| 2026-05-08 22:14 | 50.91194 | 5.76735 | 378 ft | 9 kts | 347° |
| 2026-05-08 22:15 | 50.91246 | 5.76766 | 378 ft | 7 kts | 23° |
| 2026-05-08 22:15 | 50.91280 | 5.76761 | 378 ft | 6 kts | 348° |
| 2026-05-08 22:15 | 50.91316 | 5.76748 | 378 ft | 2 kts | 347° |
| 2026-05-08 22:15 | 50.91318 | 5.76748 | 378 ft | 0 kts | 347° |